createdAt,value
2018-03-15T00:00:54.264Z,99.90
2018-03-15T00:03:27.868Z,99.90
2018-03-15T00:05:55.735Z,99.90
2018-03-15T00:08:23.602Z,99.90
2018-03-15T00:10:51.469Z,99.90
2018-03-15T00:13:19.337Z,99.90
2018-03-15T00:15:47.128Z,99.90
2018-03-15T00:18:14.969Z,99.90
2018-03-15T00:20:42.837Z,99.90
2018-03-15T00:23:10.628Z,99.90
2018-03-15T00:25:38.469Z,99.90
2018-03-15T00:28:06.340Z,99.90
2018-03-15T00:30:34.204Z,99.90
2018-03-15T00:33:02.071Z,99.90
2018-03-15T00:35:29.938Z,99.90
2018-03-15T00:37:57.805Z,99.90
2018-03-15T00:40:25.672Z,99.90
2018-03-15T00:42:53.539Z,99.90
2018-03-15T00:45:21.407Z,99.90
2018-03-15T00:47:49.275Z,99.90
2018-03-15T00:50:17.142Z,99.90
2018-03-15T00:52:45.009Z,99.90
2018-03-15T00:55:12.876Z,99.90
2018-03-15T00:57:40.882Z,99.90
2018-03-15T01:00:09.533Z,99.90
2018-03-15T01:02:37.403Z,99.90
2018-03-15T01:05:05.268Z,99.90
2018-03-15T01:07:33.136Z,99.90
2018-03-15T01:10:01.003Z,99.90
2018-03-15T01:12:28.870Z,99.90
2018-03-15T01:14:56.737Z,99.90
2018-03-15T01:17:24.605Z,99.90
2018-03-15T01:19:52.472Z,99.90
2018-03-15T01:22:20.346Z,99.90
2018-03-15T01:24:48.206Z,99.90
2018-03-15T01:27:16.074Z,99.90
2018-03-15T01:29:43.944Z,99.90
2018-03-15T01:32:11.808Z,99.90
2018-03-15T01:34:39.676Z,99.90
2018-03-15T01:37:07.543Z,99.90
2018-03-15T01:39:35.410Z,99.90
2018-03-15T01:42:03.279Z,99.90
2018-03-15T01:44:31.145Z,99.90
2018-03-15T01:46:59.012Z,99.90
2018-03-15T01:49:26.880Z,99.90
2018-03-15T01:51:54.746Z,99.90
2018-03-15T01:54:22.614Z,99.90
2018-03-15T01:56:50.480Z,99.90
2018-03-15T01:59:18.348Z,99.90
2018-03-15T02:01:46.215Z,99.90
2018-03-15T02:04:14.084Z,99.90
2018-03-15T02:06:41.952Z,99.90
2018-03-15T02:09:09.819Z,99.90
2018-03-15T02:11:37.685Z,99.90
2018-03-15T02:14:05.553Z,99.90
2018-03-15T02:16:33.420Z,99.90
2018-03-15T02:19:01.288Z,99.90
2018-03-15T02:21:29.155Z,99.90
2018-03-15T02:23:57.022Z,99.90
2018-03-15T02:26:24.890Z,99.90
2018-03-15T02:28:52.863Z,99.90
2018-03-15T02:31:20.726Z,99.90
2018-03-15T02:33:48.594Z,99.90
2018-03-15T02:36:16.461Z,99.90
2018-03-15T02:38:44.334Z,99.90
2018-03-15T02:41:12.196Z,99.90
2018-03-15T02:43:40.062Z,99.90
2018-03-15T02:46:07.929Z,99.90
2018-03-15T02:48:35.802Z,99.90
2018-03-15T02:51:03.665Z,99.90
2018-03-15T02:53:31.533Z,99.90
2018-03-15T02:55:59.404Z,99.90
2018-03-15T02:58:27.268Z,99.90
2018-03-15T03:00:55.134Z,99.90
2018-03-15T03:03:23.003Z,99.90
2018-03-15T03:05:50.868Z,99.90
2018-03-15T03:08:18.735Z,99.90
2018-03-15T03:10:46.538Z,99.90
2018-03-15T03:13:15.188Z,99.90
2018-03-15T03:15:43.055Z,99.90
2018-03-15T03:18:10.922Z,99.90
2018-03-15T03:20:38.892Z,99.90
2018-03-15T03:23:06.760Z,99.90
2018-03-15T03:25:34.627Z,99.90
2018-03-15T03:28:02.494Z,99.90
2018-03-15T03:30:30.361Z,99.90
2018-03-15T03:32:58.229Z,99.90
2018-03-15T03:35:26.100Z,99.90
2018-03-15T03:37:53.964Z,99.90
2018-03-15T03:40:21.830Z,99.90
2018-03-15T03:42:49.698Z,99.90
2018-03-15T03:45:17.566Z,99.90
2018-03-15T03:47:45.432Z,99.90
2018-03-15T03:50:13.303Z,99.90
2018-03-15T03:52:41.171Z,99.90
2018-03-15T03:55:09.035Z,99.90
2018-03-15T03:57:36.901Z,99.90
2018-03-15T04:00:04.769Z,99.90
2018-03-15T04:02:32.636Z,99.90
2018-03-15T04:05:00.504Z,99.90
2018-03-15T04:07:28.370Z,99.90
2018-03-15T04:09:56.239Z,99.90
2018-03-15T04:12:24.106Z,99.90
2018-03-15T04:17:26.702Z,99.90
2018-03-15T04:19:54.568Z,99.90
2018-03-15T04:22:22.435Z,99.90
2018-03-15T04:24:50.304Z,99.90
2018-03-15T04:27:18.170Z,99.90
2018-03-15T04:29:46.043Z,99.90
2018-03-15T04:32:13.904Z,99.90
2018-03-15T04:34:41.773Z,99.90
2018-03-15T04:37:09.646Z,99.90
2018-03-15T04:39:37.511Z,99.90
2018-03-15T04:42:05.375Z,99.90
2018-03-15T04:44:33.242Z,99.90
2018-03-15T04:47:01.109Z,99.90
2018-03-15T04:49:28.976Z,99.90
2018-03-15T04:51:56.844Z,99.90
2018-03-15T04:54:24.712Z,99.90
2018-03-15T04:56:52.583Z,99.90
2018-03-15T04:59:20.446Z,99.90
2018-03-15T05:01:48.313Z,99.90
2018-03-15T05:04:16.181Z,99.90
2018-03-15T05:06:44.048Z,99.90
2018-03-15T05:09:11.915Z,99.90
2018-03-15T05:11:39.782Z,99.90
2018-03-15T05:14:07.650Z,99.90
2018-03-15T05:16:35.516Z,99.90
2018-03-15T05:19:03.385Z,99.90
2018-03-15T05:21:31.255Z,99.90
2018-03-15T05:23:59.118Z,99.90
2018-03-15T05:26:26.986Z,99.90
2018-03-15T05:28:54.854Z,99.90
2018-03-15T05:31:22.720Z,99.90
2018-03-15T05:33:50.587Z,99.90
2018-03-15T05:36:18.454Z,99.90
2018-03-15T05:38:46.254Z,99.90
2018-03-15T05:41:14.908Z,99.90
2018-03-15T05:43:42.774Z,99.90
2018-03-15T05:46:10.641Z,99.90
2018-03-15T05:48:38.508Z,99.90
2018-03-15T05:51:06.377Z,99.90
2018-03-15T05:53:34.246Z,99.90
2018-03-15T05:56:02.110Z,99.90
2018-03-15T05:58:30.011Z,99.90
2018-03-15T06:00:58.668Z,99.90
2018-03-15T06:03:26.537Z,99.90
2018-03-15T06:05:54.398Z,99.90
2018-03-15T06:08:22.266Z,99.90
2018-03-15T06:10:50.133Z,99.90
2018-03-15T06:13:18.001Z,99.90
2018-03-15T06:15:45.868Z,99.90
2018-03-15T06:18:13.741Z,99.90
2018-03-15T06:20:41.603Z,99.90
2018-03-15T06:23:09.472Z,99.90
2018-03-15T06:25:37.338Z,99.90
2018-03-15T06:28:05.208Z,99.90
2018-03-15T06:30:33.072Z,99.90
2018-03-15T06:33:00.939Z,99.90
2018-03-15T06:35:28.806Z,99.90
2018-03-15T06:37:56.674Z,99.90
2018-03-15T06:40:24.542Z,99.90
2018-03-15T06:42:52.409Z,99.90
2018-03-15T06:45:20.278Z,99.90
2018-03-15T06:47:48.073Z,99.20
2018-03-15T06:50:15.909Z,98.50
2018-03-15T06:52:43.780Z,97.50
2018-03-15T06:55:11.643Z,99.60
2018-03-15T06:57:39.440Z,99.90
2018-03-15T07:00:08.095Z,99.90
2018-03-15T07:02:35.961Z,99.90
2018-03-15T07:05:03.833Z,99.90
2018-03-15T07:07:31.696Z,99.90
2018-03-15T07:09:59.563Z,99.40
2018-03-15T07:12:27.430Z,97.50
2018-03-15T07:14:55.298Z,94.50
2018-03-15T07:17:23.165Z,91.90
2018-03-15T07:19:51.033Z,90.70
2018-03-15T07:22:18.900Z,83.60
2018-03-15T07:24:46.768Z,74.20
2018-03-15T07:27:14.635Z,78.80
2018-03-15T07:29:42.502Z,75.20
2018-03-15T07:32:10.369Z,76.60
2018-03-15T07:34:38.230Z,77.00
2018-03-15T07:37:06.103Z,73.30
2018-03-15T07:39:33.972Z,74.00
2018-03-15T07:42:01.837Z,69.50
2018-03-15T07:44:29.706Z,73.90
2018-03-15T07:46:57.573Z,75.00
2018-03-15T07:49:25.440Z,85.00
2018-03-15T07:51:53.308Z,84.30
2018-03-15T07:54:21.174Z,92.30
2018-03-15T07:56:49.043Z,97.10
2018-03-15T07:59:16.910Z,98.00
2018-03-15T08:01:44.770Z,99.40
2018-03-15T08:04:12.644Z,98.90
2018-03-15T08:06:41.330Z,99.90
2018-03-15T08:09:09.200Z,99.90
2018-03-15T08:11:37.065Z,99.90
2018-03-15T08:14:04.932Z,99.90
2018-03-15T08:16:32.801Z,99.90
2018-03-15T08:19:00.668Z,99.90
2018-03-15T08:21:29.251Z,99.90
2018-03-15T08:23:57.118Z,99.90
2018-03-15T08:26:24.986Z,99.90
2018-03-15T08:28:52.853Z,99.60
2018-03-15T08:31:20.720Z,99.90
2018-03-15T08:33:48.593Z,99.50
2018-03-15T08:36:16.455Z,99.90
2018-03-15T08:38:44.324Z,99.90
2018-03-15T08:41:12.190Z,99.90
2018-03-15T08:43:40.058Z,99.90
2018-03-15T08:46:07.924Z,99.90
2018-03-15T08:48:35.795Z,99.90
2018-03-15T08:51:03.660Z,99.90
2018-03-15T08:53:31.545Z,99.90
2018-03-15T08:55:59.394Z,99.90
2018-03-15T08:58:27.261Z,99.90
2018-03-15T09:00:55.129Z,99.70
2018-03-15T09:03:22.996Z,99.90
2018-03-15T09:05:50.889Z,99.90
2018-03-15T09:08:19.550Z,99.90
2018-03-15T09:10:47.417Z,99.90
2018-03-15T09:13:15.284Z,99.90
2018-03-15T09:15:43.153Z,99.90
2018-03-15T09:18:11.019Z,99.90
2018-03-15T09:20:38.887Z,99.90
2018-03-15T09:23:06.798Z,99.90
2018-03-15T09:25:35.442Z,99.90
2018-03-15T09:28:03.308Z,99.90
2018-03-15T09:30:31.175Z,99.90
2018-03-15T09:32:59.043Z,99.90
2018-03-15T09:35:26.965Z,99.90
2018-03-15T09:37:55.595Z,99.90
2018-03-15T09:40:23.463Z,99.90
2018-03-15T09:42:51.331Z,99.90
2018-03-15T09:45:19.199Z,99.90
2018-03-15T09:47:47.884Z,99.90
2018-03-15T09:50:15.752Z,99.90
2018-03-15T09:52:43.619Z,99.90
2018-03-15T09:55:11.487Z,99.90
2018-03-15T09:57:39.354Z,99.10
2018-03-15T10:00:07.326Z,96.70
2018-03-15T10:02:35.191Z,96.90
2018-03-15T10:05:03.882Z,99.00
2018-03-15T10:07:31.744Z,99.00
2018-03-15T10:09:59.612Z,98.60
2018-03-15T10:12:27.480Z,97.60
2018-03-15T10:14:55.346Z,98.20
2018-03-15T10:17:23.213Z,98.70
2018-03-15T10:19:51.081Z,98.80
2018-03-15T10:22:18.948Z,98.60
2018-03-15T10:24:47.636Z,97.40
2018-03-15T10:27:18.473Z,97.30
2018-03-15T10:29:46.270Z,98.50
2018-03-15T10:32:14.104Z,97.40
2018-03-15T10:34:42.843Z,98.00
2018-03-15T10:37:11.478Z,98.30
2018-03-15T10:39:39.345Z,98.30
2018-03-15T10:42:07.211Z,98.00
2018-03-15T10:44:35.083Z,99.20
2018-03-15T10:47:03.768Z,99.90
2018-03-15T10:49:32.351Z,98.40
2018-03-15T10:52:00.218Z,98.40
2018-03-15T10:54:28.904Z,96.80
2018-03-15T10:56:57.590Z,97.20
2018-03-15T10:59:25.458Z,97.20
2018-03-15T11:01:58.886Z,98.50
2018-03-15T11:04:32.455Z,97.00
2018-03-15T11:07:15.992Z,96.00
2018-03-15T11:09:43.858Z,96.00
2018-03-15T11:12:11.728Z,97.10
2018-03-15T11:14:40.416Z,96.90
2018-03-15T11:17:08.997Z,95.80
2018-03-15T11:19:36.864Z,95.70
2018-03-15T11:22:04.834Z,96.00
2018-03-15T11:24:33.520Z,98.90
2018-03-15T11:27:01.388Z,98.90
2018-03-15T11:29:29.256Z,94.10
2018-03-15T11:31:57.122Z,94.60
2018-03-15T11:34:25.706Z,95.50
2018-03-15T11:36:53.574Z,95.90
2018-03-15T11:39:21.440Z,95.20
2018-03-15T11:41:50.128Z,94.50
2018-03-15T11:44:17.995Z,94.70
2018-03-15T11:46:45.862Z,97.40
2018-03-15T11:49:14.549Z,98.10
2018-03-15T11:51:43.235Z,95.80
2018-03-15T11:54:11.922Z,95.30
2018-03-15T11:56:40.609Z,96.00
2018-03-15T11:59:08.475Z,95.70
2018-03-15T12:01:36.363Z,96.60
2018-03-15T12:04:05.029Z,97.20
2018-03-15T12:06:32.897Z,97.10
2018-03-15T12:09:00.763Z,96.60
2018-03-15T12:11:28.631Z,97.00
2018-03-15T12:13:57.317Z,96.90
2018-03-15T12:16:26.004Z,96.60
2018-03-15T12:18:53.872Z,96.70
2018-03-15T12:21:21.739Z,96.10
2018-03-15T12:23:49.606Z,96.70
2018-03-15T12:26:17.474Z,97.20
2018-03-15T12:28:45.341Z,95.90
2018-03-15T12:31:13.209Z,96.40
2018-03-15T12:33:41.080Z,98.40
2018-03-15T12:36:08.943Z,97.10
2018-03-15T12:38:36.810Z,96.10
2018-03-15T12:41:04.680Z,96.50
2018-03-15T12:43:32.546Z,97.90
2018-03-15T12:46:00.412Z,98.50
2018-03-15T12:48:28.279Z,98.40
2018-03-15T12:50:56.147Z,96.50
2018-03-15T12:53:24.014Z,97.00
2018-03-15T12:55:51.882Z,95.50
2018-03-15T12:58:19.748Z,96.80
2018-03-15T13:00:47.616Z,97.00
2018-03-15T13:03:15.484Z,95.60
2018-03-15T13:05:43.387Z,95.80
2018-03-15T13:08:12.037Z,96.70
2018-03-15T13:10:39.904Z,96.70
2018-03-15T13:13:07.772Z,95.70
2018-03-15T13:15:35.640Z,95.70
2018-03-15T13:18:03.513Z,96.10
2018-03-15T13:20:31.374Z,95.70
2018-03-15T13:22:59.303Z,95.30
2018-03-15T13:25:27.927Z,97.40
2018-03-15T13:27:55.797Z,97.50
2018-03-15T13:30:23.661Z,94.80
2018-03-15T13:32:51.530Z,95.50
2018-03-15T13:35:19.396Z,96.50
2018-03-15T13:37:47.266Z,96.60
2018-03-15T13:40:15.131Z,95.40
2018-03-15T13:42:42.999Z,96.70
2018-03-15T13:45:10.866Z,97.10
2018-03-15T13:47:38.734Z,96.40
2018-03-15T13:50:06.601Z,96.00
2018-03-15T13:52:34.468Z,95.60
2018-03-15T13:55:02.336Z,95.30
2018-03-15T13:57:30.202Z,95.40
2018-03-15T13:59:58.071Z,97.10
2018-03-15T14:02:26.859Z,95.80
2018-03-15T14:04:54.726Z,96.30
2018-03-15T14:07:22.596Z,96.40
2018-03-15T14:09:50.460Z,95.90
2018-03-15T14:12:18.328Z,97.20
2018-03-15T14:14:46.196Z,96.80
2018-03-15T14:17:14.062Z,97.20
2018-03-15T14:19:41.929Z,94.50
2018-03-15T14:22:09.798Z,94.70
2018-03-15T14:24:37.664Z,94.50
2018-03-15T14:27:05.532Z,96.60
2018-03-15T14:29:33.414Z,95.20
2018-03-15T14:32:01.267Z,97.10
2018-03-15T14:34:29.134Z,96.30
2018-03-15T14:36:57.001Z,95.80
2018-03-15T14:39:24.869Z,96.30
2018-03-15T14:41:52.736Z,96.40
2018-03-15T14:44:20.608Z,96.60
2018-03-15T14:46:48.470Z,96.10
2018-03-15T14:49:16.338Z,95.90
2018-03-15T14:51:44.205Z,95.00
2018-03-15T14:54:12.073Z,96.10
2018-03-15T14:56:39.941Z,95.00
2018-03-15T14:59:07.809Z,95.70
2018-03-15T15:01:36.494Z,94.60
2018-03-15T15:04:04.361Z,94.50
2018-03-15T15:06:32.228Z,96.60
2018-03-15T15:09:00.095Z,94.90
2018-03-15T15:11:27.967Z,95.10
2018-03-15T15:13:55.831Z,94.20
2018-03-15T15:16:23.701Z,94.60
2018-03-15T15:18:51.565Z,96.70
2018-03-15T15:21:19.432Z,95.60
2018-03-15T15:23:47.315Z,94.70
2018-03-15T15:26:15.986Z,96.10
2018-03-15T15:28:43.854Z,96.10
2018-03-15T15:31:11.721Z,95.90
2018-03-15T15:33:39.589Z,95.80
2018-03-15T15:36:07.456Z,95.50
2018-03-15T15:38:35.335Z,95.00
2018-03-15T15:41:03.190Z,96.10
2018-03-15T15:43:31.058Z,96.70
2018-03-15T15:45:58.927Z,95.50
2018-03-15T15:48:26.792Z,96.10
2018-03-15T15:50:54.660Z,94.40
2018-03-15T15:53:22.526Z,96.00
2018-03-15T15:55:50.234Z,96.60
2018-03-15T15:58:18.876Z,95.20
2018-03-15T16:00:46.743Z,95.20
2018-03-15T16:03:14.609Z,95.00
2018-03-15T16:05:42.471Z,96.60
2018-03-15T16:08:10.345Z,96.40
2018-03-15T16:10:38.315Z,96.80
2018-03-15T16:13:07.000Z,98.00
2018-03-15T16:15:34.867Z,97.00
2018-03-15T16:18:02.736Z,96.40
2018-03-15T16:20:30.602Z,96.70
2018-03-15T16:22:58.472Z,96.30
2018-03-15T16:25:26.339Z,96.40
2018-03-15T16:27:55.026Z,96.30
2018-03-15T16:30:22.891Z,96.30
2018-03-15T16:32:50.764Z,97.40
2018-03-15T16:35:18.630Z,96.10
2018-03-15T16:37:46.497Z,97.10
2018-03-15T16:40:14.360Z,97.70
2018-03-15T16:42:42.229Z,97.30
2018-03-15T16:45:10.096Z,96.50
2018-03-15T16:47:37.963Z,97.70
2018-03-15T16:50:05.831Z,96.40
2018-03-15T16:52:33.698Z,97.70
2018-03-15T16:55:01.666Z,97.90
2018-03-15T16:57:29.537Z,97.60
2018-03-15T16:59:58.537Z,97.70
2018-03-15T17:02:26.303Z,97.70
2018-03-15T17:04:54.161Z,97.20
2018-03-15T17:07:22.540Z,97.90
2018-03-15T17:09:56.164Z,98.30
2018-03-15T17:12:26.875Z,97.30
2018-03-15T17:14:57.542Z,97.80
2018-03-15T17:17:25.478Z,99.10
2018-03-15T17:19:53.411Z,97.10
2018-03-15T17:22:21.213Z,98.30
2018-03-15T17:24:49.093Z,99.60
2018-03-15T17:27:16.948Z,98.40
2018-03-15T17:29:45.558Z,98.20
2018-03-15T17:32:14.219Z,98.50
2018-03-15T17:34:42.085Z,98.50
2018-03-15T17:37:09.952Z,99.70
2018-03-15T17:39:37.820Z,99.30
2018-03-15T17:42:05.690Z,99.80
2018-03-15T17:44:37.630Z,99.90
2018-03-15T17:47:08.017Z,99.90
2018-03-15T17:49:38.575Z,99.90
2018-03-15T17:52:09.312Z,99.50
2018-03-15T17:54:39.888Z,99.90
2018-03-15T17:57:12.308Z,99.90
2018-03-15T17:59:42.593Z,99.90
2018-03-15T18:02:13.406Z,99.90
2018-03-15T18:04:42.209Z,99.90
2018-03-15T18:07:10.063Z,99.90
2018-03-15T18:09:37.931Z,99.90
2018-03-15T18:12:05.799Z,99.90
2018-03-15T18:14:33.667Z,99.90
2018-03-15T18:17:01.532Z,99.90
2018-03-15T18:19:29.401Z,99.90
2018-03-15T18:21:57.267Z,99.90
2018-03-15T18:24:25.135Z,99.90
2018-03-15T18:26:53.052Z,99.90
2018-03-15T18:29:21.521Z,99.90
2018-03-15T18:31:50.010Z,99.90
2018-03-15T18:34:18.497Z,99.90
2018-03-15T18:36:46.969Z,99.90
2018-03-15T18:39:15.618Z,99.90
2018-03-15T18:41:43.484Z,99.90
2018-03-15T18:44:11.352Z,99.90
2018-03-15T18:46:39.217Z,99.90
2018-03-15T18:49:07.084Z,99.90
2018-03-15T18:51:34.952Z,99.90
2018-03-15T18:54:02.819Z,99.90
2018-03-15T18:56:30.681Z,99.90
2018-03-15T18:58:58.559Z,99.90
2018-03-15T19:01:26.421Z,99.90
2018-03-15T19:03:54.290Z,99.90
2018-03-15T19:06:22.155Z,99.90
2018-03-15T19:08:50.026Z,99.90
2018-03-15T19:11:17.890Z,99.90
2018-03-15T19:13:45.757Z,99.90
2018-03-15T19:16:13.624Z,99.90
2018-03-15T19:18:41.492Z,99.90
2018-03-15T19:21:09.360Z,99.90
2018-03-15T19:23:37.227Z,99.90
2018-03-15T19:26:05.094Z,99.90
2018-03-15T19:28:32.953Z,99.90
2018-03-15T19:31:00.828Z,99.90
2018-03-15T19:33:28.728Z,99.90
2018-03-15T19:35:57.383Z,99.90
2018-03-15T19:38:25.251Z,99.90
2018-03-15T19:40:53.118Z,99.90
2018-03-15T19:43:21.043Z,99.90
2018-03-15T19:45:49.671Z,99.90
2018-03-15T19:48:17.543Z,99.90
2018-03-15T19:50:45.330Z,99.90
2018-03-15T19:53:13.175Z,99.90
2018-03-15T19:55:41.038Z,99.90
2018-03-15T19:58:08.845Z,99.90
2018-03-15T20:00:37.493Z,99.90
2018-03-15T20:03:05.361Z,99.90
2018-03-15T20:05:33.224Z,99.90
2018-03-15T20:08:01.092Z,99.90
2018-03-15T20:10:28.959Z,99.90
2018-03-15T20:12:56.827Z,99.90
2018-03-15T20:15:24.693Z,99.90
2018-03-15T20:17:52.662Z,99.90
2018-03-15T20:20:20.530Z,99.90
2018-03-15T20:22:53.960Z,99.90
2018-03-15T20:25:22.616Z,99.90
2018-03-15T20:27:56.268Z,99.90
2018-03-15T20:30:24.903Z,99.90
2018-03-15T20:32:58.403Z,99.90
2018-03-15T20:35:26.270Z,99.90
2018-03-15T20:37:54.140Z,99.90
2018-03-15T20:40:27.566Z,99.90
2018-03-15T20:42:56.221Z,99.90
2018-03-15T20:45:29.926Z,99.90
2018-03-15T20:48:03.322Z,99.90
2018-03-15T20:50:31.194Z,99.90
2018-03-15T20:52:59.057Z,99.90
2018-03-15T20:55:26.924Z,99.90
2018-03-15T20:57:54.791Z,99.90
2018-03-15T21:00:22.761Z,99.90
2018-03-15T21:02:50.628Z,99.90
2018-03-15T21:05:18.534Z,99.90
2018-03-15T21:07:47.182Z,99.90
2018-03-15T21:10:15.050Z,99.90
2018-03-15T21:12:42.918Z,99.90
2018-03-15T21:15:10.813Z,99.90
2018-03-15T21:17:38.686Z,99.90
2018-03-15T21:20:07.338Z,99.90
2018-03-15T21:22:35.205Z,99.90
2018-03-15T21:25:03.072Z,99.90
2018-03-15T21:27:30.939Z,99.90
2018-03-15T21:29:58.807Z,99.90
2018-03-15T21:32:26.674Z,99.90
2018-03-15T21:34:54.541Z,99.90
2018-03-15T21:37:22.413Z,99.90
2018-03-15T21:39:50.281Z,99.90
2018-03-15T21:42:18.156Z,99.90
2018-03-15T21:44:46.010Z,99.90
2018-03-15T21:47:13.878Z,99.90
2018-03-15T21:49:41.755Z,99.90
2018-03-15T21:52:09.619Z,99.90
2018-03-15T21:54:37.481Z,99.90
2018-03-15T21:57:05.346Z,99.90
2018-03-15T21:59:33.215Z,99.90
2018-03-15T22:02:01.086Z,99.90
2018-03-15T22:04:28.949Z,99.90
2018-03-15T22:06:56.817Z,99.90
2018-03-15T22:09:24.687Z,99.90
2018-03-15T22:11:52.551Z,99.90
2018-03-15T22:14:20.418Z,99.90
2018-03-15T22:16:48.286Z,99.90
2018-03-15T22:19:16.153Z,99.90
2018-03-15T22:21:44.021Z,99.90
2018-03-15T22:24:11.888Z,99.90
2018-03-15T22:26:39.755Z,99.90
2018-03-15T22:29:07.622Z,99.90
2018-03-15T22:31:35.494Z,99.90
2018-03-15T22:34:03.357Z,99.90
2018-03-15T22:36:31.238Z,99.90
2018-03-15T22:38:59.092Z,99.90
2018-03-15T22:41:26.959Z,99.90
2018-03-15T22:43:54.826Z,99.90
2018-03-15T22:46:22.697Z,99.90
2018-03-15T22:48:50.561Z,99.90
2018-03-15T22:51:18.429Z,99.90
2018-03-15T22:53:46.296Z,99.90
2018-03-15T22:56:14.164Z,99.90
2018-03-15T22:58:42.030Z,99.90
2018-03-15T23:01:10.006Z,99.90
2018-03-15T23:03:37.872Z,99.90
2018-03-15T23:06:05.736Z,99.90
2018-03-15T23:08:33.601Z,99.90
2018-03-15T23:11:01.469Z,99.90
2018-03-15T23:13:29.235Z,99.90
2018-03-15T23:15:57.033Z,99.90
2018-03-15T23:18:25.687Z,99.90
2018-03-15T23:20:53.418Z,99.90
2018-03-15T23:23:21.216Z,99.90
2018-03-15T23:25:48.980Z,99.90
2018-03-15T23:28:16.847Z,99.90
2018-03-15T23:30:44.714Z,99.90
2018-03-15T23:33:12.583Z,99.90
2018-03-15T23:35:40.450Z,99.90
2018-03-15T23:38:08.317Z,99.90
2018-03-15T23:40:36.120Z,99.90
2018-03-15T23:43:04.718Z,99.90
2018-03-15T23:45:33.288Z,99.90
2018-03-15T23:48:01.937Z,99.90
2018-03-15T23:50:29.662Z,99.90
2018-03-15T23:52:57.476Z,99.90
2018-03-15T23:58:00.073Z,99.90
